Albuquerque (West), New Mexico
Current Conditions -  °F | °C
As of 4:49 PM on Sunday 25 Jan 2015 (Local Time) from KAEG Reporting Station
Clear Clear  
Wind Chill: 52°   Ceiling: Unl
Heat Index: 52°   Visibility: 10mi
Dew Point: 23°   Wind: 3mph
Humidity: 33%   Direction: NA
Pressure: 30.25"   Gusts: NA
Location:  35.15°N, 106.8°W
Report Text: KAEG 252349Z VRB03KT 10SM SKC 11/M05 A3025
Loading
Personal Weather Stations






























Interactive Weather Map New forecast layout! Learn more

10-Day Weather Forecast

Advertisements
Track Severe Weather on mobile